sensor_id;sensor_type;location;lat;lon;timestamp;P1;durP1;ratioP1;P2;durP2;ratioP2
20531;SDS011;10424;52.102;8.084;2024-01-30T00:00:19;20.85;;;12.05;;
20531;SDS011;10424;52.102;8.084;2024-01-30T00:02:46;23.02;;;12.63;;
20531;SDS011;10424;52.102;8.084;2024-01-30T00:05:14;22.17;;;12.43;;
20531;SDS011;10424;52.102;8.084;2024-01-30T00:07:41;22.15;;;12.82;;
20531;SDS011;10424;52.102;8.084;2024-01-30T00:10:08;20.23;;;12.50;;
20531;SDS011;10424;52.102;8.084;2024-01-30T00:12:37;20.35;;;12.77;;
20531;SDS011;10424;52.102;8.084;2024-01-30T00:15:04;21.20;;;12.55;;
20531;SDS011;10424;52.102;8.084;2024-01-30T00:17:34;21.33;;;12.88;;
20531;SDS011;10424;52.102;8.084;2024-01-30T00:20:02;20.80;;;12.43;;
20531;SDS011;10424;52.102;8.084;2024-01-30T00:22:30;23.23;;;13.10;;
20531;SDS011;10424;52.102;8.084;2024-01-30T00:24:58;21.10;;;12.55;;
20531;SDS011;10424;52.102;8.084;2024-01-30T00:27:25;23.70;;;13.90;;
20531;SDS011;10424;52.102;8.084;2024-01-30T00:29:57;23.20;;;13.27;;
20531;SDS011;10424;52.102;8.084;2024-01-30T00:32:24;24.00;;;13.15;;
20531;SDS011;10424;52.102;8.084;2024-01-30T00:34:52;20.80;;;13.02;;
20531;SDS011;10424;52.102;8.084;2024-01-30T00:37:19;21.25;;;12.60;;
20531;SDS011;10424;52.102;8.084;2024-01-30T00:39:47;22.45;;;13.25;;
20531;SDS011;10424;52.102;8.084;2024-01-30T00:42:14;22.52;;;12.80;;
20531;SDS011;10424;52.102;8.084;2024-01-30T00:44:41;22.05;;;12.75;;
20531;SDS011;10424;52.102;8.084;2024-01-30T00:47:10;23.60;;;12.30;;
20531;SDS011;10424;52.102;8.084;2024-01-30T00:49:37;23.13;;;12.82;;
20531;SDS011;10424;52.102;8.084;2024-01-30T00:52:05;21.58;;;13.20;;
20531;SDS011;10424;52.102;8.084;2024-01-30T00:54:32;21.75;;;12.98;;
20531;SDS011;10424;52.102;8.084;2024-01-30T00:56:59;22.92;;;12.65;;
20531;SDS011;10424;52.102;8.084;2024-01-30T00:59:26;21.08;;;12.38;;
20531;SDS011;10424;52.102;8.084;2024-01-30T01:01:54;24.20;;;12.95;;
20531;SDS011;10424;52.102;8.084;2024-01-30T01:04:22;21.38;;;12.43;;
20531;SDS011;10424;52.102;8.084;2024-01-30T01:06:50;22.00;;;12.68;;
20531;SDS011;10424;52.102;8.084;2024-01-30T01:09:17;20.27;;;12.70;;
20531;SDS011;10424;52.102;8.084;2024-01-30T01:11:44;20.40;;;12.38;;
20531;SDS011;10424;52.102;8.084;2024-01-30T01:14:12;21.50;;;12.50;;
20531;SDS011;10424;52.102;8.084;2024-01-30T01:16:40;21.15;;;13.07;;
20531;SDS011;10424;52.102;8.084;2024-01-30T01:19:07;21.75;;;12.75;;
20531;SDS011;10424;52.102;8.084;2024-01-30T01:21:36;22.45;;;13.05;;
20531;SDS011;10424;52.102;8.084;2024-01-30T01:24:03;21.75;;;12.90;;
20531;SDS011;10424;52.102;8.084;2024-01-30T01:26:31;25.50;;;12.95;;
20531;SDS011;10424;52.102;8.084;2024-01-30T01:28:58;21.05;;;12.95;;
20531;SDS011;10424;52.102;8.084;2024-01-30T01:31:25;26.27;;;13.43;;
20531;SDS011;10424;52.102;8.084;2024-01-30T01:33:54;24.77;;;13.15;;
20531;SDS011;10424;52.102;8.084;2024-01-30T01:36:22;21.63;;;12.70;;
20531;SDS011;10424;52.102;8.084;2024-01-30T01:38:50;23.30;;;13.20;;
20531;SDS011;10424;52.102;8.084;2024-01-30T01:41:17;22.08;;;12.70;;
20531;SDS011;10424;52.102;8.084;2024-01-30T01:43:45;22.67;;;12.82;;
20531;SDS011;10424;52.102;8.084;2024-01-30T01:46:12;22.35;;;12.95;;
20531;SDS011;10424;52.102;8.084;2024-01-30T01:48:39;22.47;;;12.73;;
20531;SDS011;10424;52.102;8.084;2024-01-30T01:51:07;23.87;;;13.83;;
20531;SDS011;10424;52.102;8.084;2024-01-30T01:53:35;27.58;;;13.70;;
20531;SDS011;10424;52.102;8.084;2024-01-30T01:56:04;23.50;;;13.17;;
20531;SDS011;10424;52.102;8.084;2024-01-30T01:58:32;23.02;;;12.88;;
20531;SDS011;10424;52.102;8.084;2024-01-30T02:00:59;20.60;;;12.55;;
20531;SDS011;10424;52.102;8.084;2024-01-30T02:03:26;22.90;;;12.70;;
20531;SDS011;10424;52.102;8.084;2024-01-30T02:05:54;22.73;;;13.27;;
20531;SDS011;10424;52.102;8.084;2024-01-30T02:08:22;23.15;;;13.32;;
20531;SDS011;10424;52.102;8.084;2024-01-30T02:10:49;21.92;;;13.32;;
20531;SDS011;10424;52.102;8.084;2024-01-30T02:13:18;23.38;;;14.13;;
20531;SDS011;10424;52.102;8.084;2024-01-30T02:15:48;24.70;;;13.13;;
20531;SDS011;10424;52.102;8.084;2024-01-30T02:18:16;24.58;;;12.82;;
20531;SDS011;10424;52.102;8.084;2024-01-30T02:20:43;21.38;;;13.35;;
20531;SDS011;10424;52.102;8.084;2024-01-30T02:23:12;22.13;;;12.83;;
20531;SDS011;10424;52.102;8.084;2024-01-30T02:25:40;24.08;;;13.02;;
20531;SDS011;10424;52.102;8.084;2024-01-30T02:28:09;22.88;;;12.82;;
20531;SDS011;10424;52.102;8.084;2024-01-30T02:30:37;22.73;;;12.80;;
20531;SDS011;10424;52.102;8.084;2024-01-30T02:33:04;22.10;;;12.68;;
20531;SDS011;10424;52.102;8.084;2024-01-30T02:35:31;23.73;;;12.95;;
20531;SDS011;10424;52.102;8.084;2024-01-30T02:38:00;23.47;;;13.53;;
20531;SDS011;10424;52.102;8.084;2024-01-30T02:40:29;20.95;;;12.68;;
20531;SDS011;10424;52.102;8.084;2024-01-30T02:42:56;24.08;;;13.02;;
20531;SDS011;10424;52.102;8.084;2024-01-30T02:45:23;23.27;;;12.90;;
20531;SDS011;10424;52.102;8.084;2024-01-30T02:47:50;25.48;;;13.23;;
20531;SDS011;10424;52.102;8.084;2024-01-30T02:50:18;21.85;;;12.88;;
20531;SDS011;10424;52.102;8.084;2024-01-30T02:52:45;22.58;;;13.07;;
20531;SDS011;10424;52.102;8.084;2024-01-30T02:55:15;23.05;;;12.70;;
20531;SDS011;10424;52.102;8.084;2024-01-30T02:57:44;22.88;;;13.45;;
20531;SDS011;10424;52.102;8.084;2024-01-30T03:00:12;22.63;;;12.25;;
20531;SDS011;10424;52.102;8.084;2024-01-30T03:02:39;24.15;;;12.80;;
20531;SDS011;10424;52.102;8.084;2024-01-30T03:05:07;20.80;;;12.65;;
20531;SDS011;10424;52.102;8.084;2024-01-30T03:07:34;20.15;;;12.43;;
20531;SDS011;10424;52.102;8.084;2024-01-30T03:10:02;23.83;;;13.23;;
20531;SDS011;10424;52.102;8.084;2024-01-30T03:12:31;20.48;;;12.45;;
20531;SDS011;10424;52.102;8.084;2024-01-30T03:14:59;23.63;;;13.07;;
20531;SDS011;10424;52.102;8.084;2024-01-30T03:17:26;23.02;;;13.50;;
20531;SDS011;10424;52.102;8.084;2024-01-30T03:19:54;22.83;;;13.23;;
20531;SDS011;10424;52.102;8.084;2024-01-30T03:22:21;22.13;;;12.98;;
20531;SDS011;10424;52.102;8.084;2024-01-30T03:24:49;22.13;;;12.68;;
20531;SDS011;10424;52.102;8.084;2024-01-30T03:27:16;25.48;;;13.23;;
20531;SDS011;10424;52.102;8.084;2024-01-30T03:29:43;24.93;;;12.67;;
20531;SDS011;10424;52.102;8.084;2024-01-30T03:32:12;25.47;;;13.47;;
20531;SDS011;10424;52.102;8.084;2024-01-30T03:34:39;22.00;;;12.57;;
20531;SDS011;10424;52.102;8.084;2024-01-30T03:37:06;21.97;;;12.97;;
20531;SDS011;10424;52.102;8.084;2024-01-30T03:39:33;22.10;;;12.93;;
20531;SDS011;10424;52.102;8.084;2024-01-30T03:42:01;23.55;;;13.10;;
20531;SDS011;10424;52.102;8.084;2024-01-30T03:44:29;21.77;;;13.13;;
20531;SDS011;10424;52.102;8.084;2024-01-30T03:46:56;20.92;;;13.52;;
20531;SDS011;10424;52.102;8.084;2024-01-30T03:49:25;21.30;;;12.90;;
20531;SDS011;10424;52.102;8.084;2024-01-30T03:51:52;23.20;;;12.50;;
20531;SDS011;10424;52.102;8.084;2024-01-30T03:54:19;24.58;;;12.98;;
20531;SDS011;10424;52.102;8.084;2024-01-30T03:56:46;23.42;;;12.60;;
20531;SDS011;10424;52.102;8.084;2024-01-30T03:59:14;21.45;;;12.93;;
20531;SDS011;10424;52.102;8.084;2024-01-30T04:01:42;23.75;;;13.57;;
20531;SDS011;10424;52.102;8.084;2024-01-30T04:04:09;23.65;;;13.45;;
20531;SDS011;10424;52.102;8.084;2024-01-30T04:06:38;22.52;;;13.27;;
20531;SDS011;10424;52.102;8.084;2024-01-30T04:09:05;23.33;;;13.43;;
20531;SDS011;10424;52.102;8.084;2024-01-30T04:11:33;20.55;;;12.48;;
20531;SDS011;10424;52.102;8.084;2024-01-30T04:14:00;20.83;;;12.80;;
20531;SDS011;10424;52.102;8.084;2024-01-30T04:16:27;23.80;;;13.25;;
20531;SDS011;10424;52.102;8.084;2024-01-30T04:18:55;25.25;;;13.25;;
20531;SDS011;10424;52.102;8.084;2024-01-30T04:21:22;24.00;;;12.70;;
20531;SDS011;10424;52.102;8.084;2024-01-30T04:23:51;23.77;;;12.70;;
20531;SDS011;10424;52.102;8.084;2024-01-30T04:26:19;24.63;;;12.93;;
20531;SDS011;10424;52.102;8.084;2024-01-30T04:28:46;25.93;;;13.30;;
20531;SDS011;10424;52.102;8.084;2024-01-30T04:31:13;25.93;;;13.43;;
20531;SDS011;10424;52.102;8.084;2024-01-30T04:33:40;22.02;;;13.68;;
20531;SDS011;10424;52.102;8.084;2024-01-30T04:36:08;23.30;;;13.37;;
20531;SDS011;10424;52.102;8.084;2024-01-30T04:38:36;28.38;;;12.93;;
20531;SDS011;10424;52.102;8.084;2024-01-30T04:41:08;23.50;;;13.32;;
20531;SDS011;10424;52.102;8.084;2024-01-30T04:43:36;23.10;;;13.00;;
20531;SDS011;10424;52.102;8.084;2024-01-30T04:46:04;23.48;;;13.23;;
20531;SDS011;10424;52.102;8.084;2024-01-30T04:48:34;21.77;;;12.60;;
20531;SDS011;10424;52.102;8.084;2024-01-30T04:51:03;22.35;;;13.27;;
20531;SDS011;10424;52.102;8.084;2024-01-30T04:53:33;24.37;;;13.17;;
20531;SDS011;10424;52.102;8.084;2024-01-30T04:56:00;23.67;;;14.10;;
20531;SDS011;10424;52.102;8.084;2024-01-30T04:58:33;29.10;;;13.32;;
20531;SDS011;10424;52.102;8.084;2024-01-30T05:01:01;22.98;;;13.68;;
20531;SDS011;10424;52.102;8.084;2024-01-30T05:03:32;24.73;;;13.25;;
20531;SDS011;10424;52.102;8.084;2024-01-30T05:06:00;25.57;;;14.00;;
20531;SDS011;10424;52.102;8.084;2024-01-30T05:08:28;25.10;;;13.95;;
20531;SDS011;10424;52.102;8.084;2024-01-30T05:10:59;23.83;;;13.80;;
20531;SDS011;10424;52.102;8.084;2024-01-30T05:13:30;25.73;;;13.57;;
20531;SDS011;10424;52.102;8.084;2024-01-30T05:15:57;24.30;;;14.00;;
20531;SDS011;10424;52.102;8.084;2024-01-30T05:18:25;26.40;;;14.30;;
20531;SDS011;10424;52.102;8.084;2024-01-30T05:20:53;24.50;;;13.13;;
20531;SDS011;10424;52.102;8.084;2024-01-30T05:23:20;23.50;;;13.53;;
20531;SDS011;10424;52.102;8.084;2024-01-30T05:26:03;24.80;;;14.20;;
20531;SDS011;10424;52.102;8.084;2024-01-30T05:28:31;27.08;;;14.23;;
20531;SDS011;10424;52.102;8.084;2024-01-30T05:30:59;26.80;;;14.07;;
20531;SDS011;10424;52.102;8.084;2024-01-30T05:33:30;26.07;;;14.30;;
20531;SDS011;10424;52.102;8.084;2024-01-30T05:35:58;24.73;;;14.23;;
20531;SDS011;10424;52.102;8.084;2024-01-30T05:38:25;27.27;;;13.77;;
20531;SDS011;10424;52.102;8.084;2024-01-30T05:40:55;23.70;;;13.57;;
20531;SDS011;10424;52.102;8.084;2024-01-30T05:43:23;24.10;;;13.53;;
20531;SDS011;10424;52.102;8.084;2024-01-30T05:45:52;26.43;;;13.90;;
20531;SDS011;10424;52.102;8.084;2024-01-30T05:48:19;25.93;;;14.27;;
20531;SDS011;10424;52.102;8.084;2024-01-30T05:50:46;24.03;;;14.10;;
20531;SDS011;10424;52.102;8.084;2024-01-30T05:53:14;25.38;;;14.18;;
20531;SDS011;10424;52.102;8.084;2024-01-30T05:55:41;24.90;;;13.98;;
20531;SDS011;10424;52.102;8.084;2024-01-30T05:58:08;22.60;;;13.07;;
20531;SDS011;10424;52.102;8.084;2024-01-30T06:00:36;29.65;;;14.25;;
20531;SDS011;10424;52.102;8.084;2024-01-30T06:03:04;23.23;;;14.55;;
20531;SDS011;10424;52.102;8.084;2024-01-30T06:05:32;27.20;;;13.67;;
20531;SDS011;10424;52.102;8.084;2024-01-30T06:07:59;26.13;;;13.50;;
20531;SDS011;10424;52.102;8.084;2024-01-30T06:10:26;23.77;;;13.90;;
20531;SDS011;10424;52.102;8.084;2024-01-30T06:12:54;23.58;;;13.73;;
20531;SDS011;10424;52.102;8.084;2024-01-30T06:15:21;26.17;;;13.40;;
20531;SDS011;10424;52.102;8.084;2024-01-30T06:17:48;25.25;;;13.02;;
20531;SDS011;10424;52.102;8.084;2024-01-30T06:20:17;23.47;;;13.00;;
20531;SDS011;10424;52.102;8.084;2024-01-30T06:22:45;24.40;;;13.23;;
20531;SDS011;10424;52.102;8.084;2024-01-30T06:25:12;25.20;;;13.43;;
20531;SDS011;10424;52.102;8.084;2024-01-30T06:27:39;26.40;;;13.83;;
20531;SDS011;10424;52.102;8.084;2024-01-30T06:30:07;24.97;;;13.63;;
20531;SDS011;10424;52.102;8.084;2024-01-30T06:32:35;25.90;;;14.40;;
20531;SDS011;10424;52.102;8.084;2024-01-30T06:35:02;21.15;;;12.98;;
20531;SDS011;10424;52.102;8.084;2024-01-30T06:37:31;25.92;;;13.88;;
20531;SDS011;10424;52.102;8.084;2024-01-30T06:39:58;24.67;;;13.20;;
20531;SDS011;10424;52.102;8.084;2024-01-30T06:42:26;24.70;;;13.77;;
20531;SDS011;10424;52.102;8.084;2024-01-30T06:44:53;24.48;;;13.45;;
20531;SDS011;10424;52.102;8.084;2024-01-30T06:47:20;23.33;;;13.18;;
20531;SDS011;10424;52.102;8.084;2024-01-30T06:49:48;26.50;;;14.02;;
20531;SDS011;10424;52.102;8.084;2024-01-30T06:52:15;21.83;;;13.10;;
20531;SDS011;10424;52.102;8.084;2024-01-30T06:54:44;25.20;;;13.20;;
20531;SDS011;10424;52.102;8.084;2024-01-30T06:57:11;24.63;;;14.23;;
20531;SDS011;10424;52.102;8.084;2024-01-30T06:59:39;22.95;;;13.40;;
20531;SDS011;10424;52.102;8.084;2024-01-30T07:02:09;23.77;;;13.52;;
20531;SDS011;10424;52.102;8.084;2024-01-30T07:04:36;27.42;;;13.18;;
20531;SDS011;10424;52.102;8.084;2024-01-30T07:07:04;22.80;;;13.00;;
20531;SDS011;10424;52.102;8.084;2024-01-30T07:09:37;24.98;;;12.50;;
20531;SDS011;10424;52.102;8.084;2024-01-30T07:12:06;20.57;;;12.10;;
20531;SDS011;10424;52.102;8.084;2024-01-30T07:14:33;25.83;;;12.95;;
20531;SDS011;10424;52.102;8.084;2024-01-30T07:17:01;22.55;;;12.40;;
20531;SDS011;10424;52.102;8.084;2024-01-30T07:19:29;21.42;;;12.75;;
20531;SDS011;10424;52.102;8.084;2024-01-30T07:21:56;22.70;;;12.55;;
20531;SDS011;10424;52.102;8.084;2024-01-30T07:24:23;24.50;;;13.10;;
20531;SDS011;10424;52.102;8.084;2024-01-30T07:26:51;24.80;;;13.18;;
20531;SDS011;10424;52.102;8.084;2024-01-30T07:29:19;21.85;;;12.75;;
20531;SDS011;10424;52.102;8.084;2024-01-30T07:31:47;23.52;;;13.20;;
20531;SDS011;10424;52.102;8.084;2024-01-30T07:34:14;23.75;;;12.85;;
20531;SDS011;10424;52.102;8.084;2024-01-30T07:36:42;23.45;;;13.10;;
20531;SDS011;10424;52.102;8.084;2024-01-30T07:39:09;21.63;;;12.52;;
20531;SDS011;10424;52.102;8.084;2024-01-30T07:41:36;21.63;;;12.35;;
20531;SDS011;10424;52.102;8.084;2024-01-30T07:44:03;21.70;;;12.45;;
20531;SDS011;10424;52.102;8.084;2024-01-30T07:46:32;22.15;;;12.00;;
20531;SDS011;10424;52.102;8.084;2024-01-30T07:49:00;20.70;;;11.68;;
20531;SDS011;10424;52.102;8.084;2024-01-30T07:51:27;21.02;;;12.05;;
20531;SDS011;10424;52.102;8.084;2024-01-30T07:54:00;25.00;;;12.32;;
20531;SDS011;10424;52.102;8.084;2024-01-30T07:56:27;20.98;;;11.93;;
20531;SDS011;10424;52.102;8.084;2024-01-30T07:58:55;23.95;;;12.45;;
20531;SDS011;10424;52.102;8.084;2024-01-30T08:01:22;21.48;;;11.88;;
20531;SDS011;10424;52.102;8.084;2024-01-30T08:03:51;18.50;;;11.15;;
20531;SDS011;10424;52.102;8.084;2024-01-30T08:06:18;20.10;;;11.63;;
20531;SDS011;10424;52.102;8.084;2024-01-30T08:08:45;23.08;;;12.43;;
20531;SDS011;10424;52.102;8.084;2024-01-30T08:11:13;21.33;;;11.73;;
20531;SDS011;10424;52.102;8.084;2024-01-30T08:13:42;23.80;;;12.05;;
20531;SDS011;10424;52.102;8.084;2024-01-30T08:16:09;19.38;;;11.13;;
20531;SDS011;10424;52.102;8.084;2024-01-30T08:18:37;23.10;;;12.23;;
20531;SDS011;10424;52.102;8.084;2024-01-30T08:21:06;20.52;;;11.73;;
20531;SDS011;10424;52.102;8.084;2024-01-30T08:23:34;19.52;;;11.75;;
20531;SDS011;10424;52.102;8.084;2024-01-30T08:26:01;20.75;;;11.43;;
20531;SDS011;10424;52.102;8.084;2024-01-30T08:28:29;18.77;;;11.32;;
20531;SDS011;10424;52.102;8.084;2024-01-30T08:30:56;19.55;;;10.57;;
20531;SDS011;10424;52.102;8.084;2024-01-30T08:33:23;18.50;;;10.80;;
20531;SDS011;10424;52.102;8.084;2024-01-30T08:35:51;19.65;;;10.70;;
20531;SDS011;10424;52.102;8.084;2024-01-30T08:38:20;16.40;;;9.98;;
20531;SDS011;10424;52.102;8.084;2024-01-30T08:40:47;18.70;;;10.55;;
20531;SDS011;10424;52.102;8.084;2024-01-30T08:43:14;17.02;;;10.18;;
20531;SDS011;10424;52.102;8.084;2024-01-30T08:45:41;19.42;;;10.48;;
20531;SDS011;10424;52.102;8.084;2024-01-30T08:48:09;16.63;;;10.02;;
20531;SDS011;10424;52.102;8.084;2024-01-30T08:50:36;16.83;;;10.50;;
20531;SDS011;10424;52.102;8.084;2024-01-30T08:53:04;18.95;;;10.50;;
20531;SDS011;10424;52.102;8.084;2024-01-30T08:55:32;18.48;;;10.63;;
20531;SDS011;10424;52.102;8.084;2024-01-30T08:57:59;17.60;;;9.85;;
20531;SDS011;10424;52.102;8.084;2024-01-30T09:00:29;16.50;;;9.68;;
20531;SDS011;10424;52.102;8.084;2024-01-30T09:02:56;17.38;;;10.00;;
20531;SDS011;10424;52.102;8.084;2024-01-30T09:05:23;15.65;;;10.10;;
20531;SDS011;10424;52.102;8.084;2024-01-30T09:07:50;16.08;;;9.50;;
20531;SDS011;10424;52.102;8.084;2024-01-30T09:10:18;13.60;;;8.98;;
20531;SDS011;10424;52.102;8.084;2024-01-30T09:12:47;16.30;;;9.40;;
20531;SDS011;10424;52.102;8.084;2024-01-30T09:15:14;16.77;;;9.85;;
20531;SDS011;10424;52.102;8.084;2024-01-30T09:17:42;17.98;;;10.10;;
20531;SDS011;10424;52.102;8.084;2024-01-30T09:20:10;17.83;;;9.75;;
20531;SDS011;10424;52.102;8.084;2024-01-30T09:22:37;18.98;;;10.48;;
20531;SDS011;10424;52.102;8.084;2024-01-30T09:25:05;16.35;;;10.02;;
20531;SDS011;10424;52.102;8.084;2024-01-30T09:27:32;18.02;;;9.80;;
20531;SDS011;10424;52.102;8.084;2024-01-30T09:30:01;16.95;;;10.57;;
20531;SDS011;10424;52.102;8.084;2024-01-30T09:32:28;17.05;;;10.20;;
20531;SDS011;10424;52.102;8.084;2024-01-30T09:34:55;18.92;;;12.55;;
20531;SDS011;10424;52.102;8.084;2024-01-30T09:37:23;19.33;;;10.45;;
20531;SDS011;10424;52.102;8.084;2024-01-30T09:39:50;16.17;;;10.43;;
20531;SDS011;10424;52.102;8.084;2024-01-30T09:42:22;20.85;;;10.88;;
20531;SDS011;10424;52.102;8.084;2024-01-30T09:44:53;17.08;;;9.88;;
20531;SDS011;10424;52.102;8.084;2024-01-30T09:47:22;16.08;;;10.20;;
20531;SDS011;10424;52.102;8.084;2024-01-30T09:49:49;18.73;;;10.57;;
20531;SDS011;10424;52.102;8.084;2024-01-30T09:52:17;16.27;;;10.50;;
20531;SDS011;10424;52.102;8.084;2024-01-30T09:54:45;17.92;;;10.82;;
20531;SDS011;10424;52.102;8.084;2024-01-30T09:57:12;17.05;;;9.68;;
20531;SDS011;10424;52.102;8.084;2024-01-30T09:59:41;17.58;;;10.18;;
20531;SDS011;10424;52.102;8.084;2024-01-30T10:02:09;17.77;;;11.02;;
20531;SDS011;10424;52.102;8.084;2024-01-30T10:04:38;16.60;;;10.07;;
20531;SDS011;10424;52.102;8.084;2024-01-30T10:07:06;13.40;;;9.25;;
20531;SDS011;10424;52.102;8.084;2024-01-30T10:09:34;14.63;;;9.93;;
20531;SDS011;10424;52.102;8.084;2024-01-30T10:12:02;16.00;;;9.98;;
20531;SDS011;10424;52.102;8.084;2024-01-30T10:14:29;14.02;;;9.25;;
20531;SDS011;10424;52.102;8.084;2024-01-30T10:16:57;15.07;;;9.35;;
20531;SDS011;10424;52.102;8.084;2024-01-30T10:19:24;15.30;;;9.32;;
20531;SDS011;10424;52.102;8.084;2024-01-30T10:21:53;15.52;;;9.23;;
20531;SDS011;10424;52.102;8.084;2024-01-30T10:24:23;15.35;;;9.75;;
20531;SDS011;10424;52.102;8.084;2024-01-30T10:26:50;14.35;;;9.38;;
20531;SDS011;10424;52.102;8.084;2024-01-30T10:29:18;15.88;;;9.73;;
20531;SDS011;10424;52.102;8.084;2024-01-30T10:31:45;15.38;;;9.75;;
20531;SDS011;10424;52.102;8.084;2024-01-30T10:34:12;16.10;;;9.52;;
20531;SDS011;10424;52.102;8.084;2024-01-30T10:36:40;17.20;;;10.02;;
20531;SDS011;10424;52.102;8.084;2024-01-30T10:39:09;15.18;;;9.65;;
20531;SDS011;10424;52.102;8.084;2024-01-30T10:41:40;14.10;;;9.27;;
20531;SDS011;10424;52.102;8.084;2024-01-30T10:44:10;16.77;;;9.68;;
20531;SDS011;10424;52.102;8.084;2024-01-30T10:46:38;16.23;;;9.63;;
20531;SDS011;10424;52.102;8.084;2024-01-30T10:49:05;15.32;;;9.55;;
20531;SDS011;10424;52.102;8.084;2024-01-30T10:51:33;18.10;;;9.85;;
20531;SDS011;10424;52.102;8.084;2024-01-30T10:54:01;13.85;;;9.23;;
20531;SDS011;10424;52.102;8.084;2024-01-30T10:56:31;15.13;;;9.88;;
20531;SDS011;10424;52.102;8.084;2024-01-30T10:58:59;15.98;;;9.52;;
20531;SDS011;10424;52.102;8.084;2024-01-30T11:01:27;15.93;;;9.95;;
20531;SDS011;10424;52.102;8.084;2024-01-30T11:03:55;16.33;;;10.20;;
20531;SDS011;10424;52.102;8.084;2024-01-30T11:06:22;17.40;;;10.23;;
20531;SDS011;10424;52.102;8.084;2024-01-30T11:08:59;15.93;;;9.82;;
20531;SDS011;10424;52.102;8.084;2024-01-30T11:11:28;15.75;;;10.30;;
20531;SDS011;10424;52.102;8.084;2024-01-30T11:14:00;17.15;;;9.82;;
20531;SDS011;10424;52.102;8.084;2024-01-30T11:16:30;17.58;;;10.00;;
20531;SDS011;10424;52.102;8.084;2024-01-30T11:19:00;18.08;;;9.63;;
20531;SDS011;10424;52.102;8.084;2024-01-30T11:21:27;18.65;;;10.63;;
20531;SDS011;10424;52.102;8.084;2024-01-30T11:23:55;20.30;;;10.25;;
20531;SDS011;10424;52.102;8.084;2024-01-30T11:26:23;17.83;;;10.57;;
20531;SDS011;10424;52.102;8.084;2024-01-30T11:28:52;16.98;;;10.57;;
20531;SDS011;10424;52.102;8.084;2024-01-30T11:31:21;15.65;;;10.07;;
20531;SDS011;10424;52.102;8.084;2024-01-30T11:33:48;15.45;;;9.98;;
20531;SDS011;10424;52.102;8.084;2024-01-30T11:36:20;18.92;;;10.18;;
20531;SDS011;10424;52.102;8.084;2024-01-30T11:38:48;15.07;;;9.70;;
20531;SDS011;10424;52.102;8.084;2024-01-30T11:41:15;15.90;;;9.77;;
20531;SDS011;10424;52.102;8.084;2024-01-30T11:43:43;15.23;;;9.70;;
20531;SDS011;10424;52.102;8.084;2024-01-30T11:46:10;13.50;;;9.15;;
20531;SDS011;10424;52.102;8.084;2024-01-30T11:48:39;17.10;;;8.80;;
20531;SDS011;10424;52.102;8.084;2024-01-30T11:51:06;13.10;;;8.68;;
20531;SDS011;10424;52.102;8.084;2024-01-30T11:53:33;16.77;;;9.13;;
20531;SDS011;10424;52.102;8.084;2024-01-30T11:56:01;16.10;;;8.13;;
20531;SDS011;10424;52.102;8.084;2024-01-30T11:58:29;15.77;;;8.43;;
20531;SDS011;10424;52.102;8.084;2024-01-30T12:00:56;13.10;;;8.23;;
20531;SDS011;10424;52.102;8.084;2024-01-30T12:03:23;13.60;;;8.50;;
20531;SDS011;10424;52.102;8.084;2024-01-30T12:05:56;17.40;;;9.00;;
20531;SDS011;10424;52.102;8.084;2024-01-30T12:08:24;13.52;;;8.52;;
20531;SDS011;10424;52.102;8.084;2024-01-30T12:10:55;13.38;;;7.97;;
20531;SDS011;10424;52.102;8.084;2024-01-30T12:13:24;13.52;;;8.57;;
20531;SDS011;10424;52.102;8.084;2024-01-30T12:15:51;15.73;;;8.30;;
20531;SDS011;10424;52.102;8.084;2024-01-30T12:18:18;13.68;;;7.55;;
20531;SDS011;10424;52.102;8.084;2024-01-30T12:20:57;17.60;;;8.43;;
20531;SDS011;10424;52.102;8.084;2024-01-30T12:23:25;17.80;;;8.52;;
20531;SDS011;10424;52.102;8.084;2024-01-30T12:25:52;16.67;;;8.38;;
20531;SDS011;10424;52.102;8.084;2024-01-30T12:28:20;11.73;;;6.82;;
20531;SDS011;10424;52.102;8.084;2024-01-30T12:30:47;15.07;;;7.85;;
20531;SDS011;10424;52.102;8.084;2024-01-30T12:33:16;15.05;;;8.48;;
20531;SDS011;10424;52.102;8.084;2024-01-30T12:35:45;17.40;;;8.10;;
20531;SDS011;10424;52.102;8.084;2024-01-30T12:38:14;13.10;;;8.05;;
20531;SDS011;10424;52.102;8.084;2024-01-30T12:40:43;16.13;;;7.95;;
20531;SDS011;10424;52.102;8.084;2024-01-30T12:43:11;12.55;;;8.07;;
20531;SDS011;10424;52.102;8.084;2024-01-30T12:45:41;12.63;;;7.68;;
20531;SDS011;10424;52.102;8.084;2024-01-30T12:48:08;13.68;;;8.65;;
20531;SDS011;10424;52.102;8.084;2024-01-30T12:50:36;13.57;;;8.05;;
20531;SDS011;10424;52.102;8.084;2024-01-30T12:53:03;14.65;;;7.88;;
20531;SDS011;10424;52.102;8.084;2024-01-30T12:55:32;17.10;;;8.65;;
20531;SDS011;10424;52.102;8.084;2024-01-30T12:57:59;14.90;;;8.25;;
20531;SDS011;10424;52.102;8.084;2024-01-30T13:00:28;14.23;;;8.13;;
20531;SDS011;10424;52.102;8.084;2024-01-30T13:02:55;15.23;;;7.55;;
20531;SDS011;10424;52.102;8.084;2024-01-30T13:05:22;14.88;;;7.93;;
20531;SDS011;10424;52.102;8.084;2024-01-30T13:07:50;15.65;;;7.90;;
20531;SDS011;10424;52.102;8.084;2024-01-30T13:10:18;13.23;;;8.18;;
20531;SDS011;10424;52.102;8.084;2024-01-30T13:12:47;14.30;;;8.05;;
20531;SDS011;10424;52.102;8.084;2024-01-30T13:15:14;18.33;;;8.10;;
20531;SDS011;10424;52.102;8.084;2024-01-30T13:17:42;11.63;;;7.68;;
20531;SDS011;10424;52.102;8.084;2024-01-30T13:20:10;12.50;;;7.13;;
20531;SDS011;10424;52.102;8.084;2024-01-30T13:22:41;13.18;;;7.75;;
20531;SDS011;10424;52.102;8.084;2024-01-30T13:25:09;15.40;;;7.00;;
20531;SDS011;10424;52.102;8.084;2024-01-30T13:27:36;15.57;;;7.68;;
20531;SDS011;10424;52.102;8.084;2024-01-30T13:30:06;15.38;;;7.72;;
20531;SDS011;10424;52.102;8.084;2024-01-30T13:32:35;12.73;;;7.00;;
20531;SDS011;10424;52.102;8.084;2024-01-30T13:35:03;19.38;;;6.50;;
20531;SDS011;10424;52.102;8.084;2024-01-30T13:37:30;14.85;;;7.47;;
20531;SDS011;10424;52.102;8.084;2024-01-30T13:39:57;13.63;;;7.22;;
20531;SDS011;10424;52.102;8.084;2024-01-30T13:42:25;15.68;;;6.93;;
20531;SDS011;10424;52.102;8.084;2024-01-30T13:44:52;17.85;;;7.13;;
20531;SDS011;10424;52.102;8.084;2024-01-30T13:47:21;13.98;;;8.07;;
20531;SDS011;10424;52.102;8.084;2024-01-30T13:49:48;14.90;;;7.78;;
20531;SDS011;10424;52.102;8.084;2024-01-30T13:52:17;14.50;;;7.63;;
20531;SDS011;10424;52.102;8.084;2024-01-30T13:54:45;15.13;;;8.45;;
20531;SDS011;10424;52.102;8.084;2024-01-30T13:57:12;12.52;;;6.85;;
20531;SDS011;10424;52.102;8.084;2024-01-30T13:59:40;17.30;;;8.15;;
20531;SDS011;10424;52.102;8.084;2024-01-30T14:02:07;13.93;;;8.52;;
20531;SDS011;10424;52.102;8.084;2024-01-30T14:04:36;10.30;;;5.55;;
20531;SDS011;10424;52.102;8.084;2024-01-30T14:07:04;17.73;;;8.07;;
20531;SDS011;10424;52.102;8.084;2024-01-30T14:09:32;13.68;;;7.20;;
20531;SDS011;10424;52.102;8.084;2024-01-30T14:11:59;16.05;;;7.95;;
20531;SDS011;10424;52.102;8.084;2024-01-30T14:14:27;15.93;;;7.90;;
20531;SDS011;10424;52.102;8.084;2024-01-30T14:16:54;15.73;;;7.97;;
20531;SDS011;10424;52.102;8.084;2024-01-30T14:19:22;16.55;;;8.23;;
20531;SDS011;10424;52.102;8.084;2024-01-30T14:21:50;12.98;;;6.18;;
20531;SDS011;10424;52.102;8.084;2024-01-30T14:24:18;14.35;;;7.10;;
20531;SDS011;10424;52.102;8.084;2024-01-30T14:26:45;16.95;;;7.68;;
20531;SDS011;10424;52.102;8.084;2024-01-30T14:29:12;16.30;;;7.45;;